createdAt,value
2018-10-07T00:01:08.853Z,9.27
2018-10-07T00:03:35.163Z,8.50
2018-10-07T00:06:01.478Z,9.37
2018-10-07T00:08:27.769Z,9.40
2018-10-07T00:10:54.857Z,8.67
2018-10-07T00:13:21.129Z,9.33
2018-10-07T00:15:47.429Z,9.30
2018-10-07T00:18:13.738Z,9.70
2018-10-07T00:20:40.027Z,9.33
2018-10-07T00:23:06.329Z,9.77
2018-10-07T00:25:32.618Z,9.43
2018-10-07T00:27:58.959Z,10.50
2018-10-07T00:30:25.245Z,10.23
2018-10-07T00:32:51.562Z,9.70
2018-10-07T00:35:17.834Z,8.73
2018-10-07T00:37:51.952Z,9.83
2018-10-07T00:40:18.274Z,8.23
2018-10-07T00:42:44.591Z,9.00
2018-10-07T00:45:10.918Z,9.20
2018-10-07T00:47:37.251Z,8.60
2018-10-07T00:50:03.550Z,9.00
2018-10-07T00:52:29.829Z,8.83
2018-10-07T00:54:57.096Z,9.20
2018-10-07T00:57:24.138Z,9.00
2018-10-07T00:59:50.437Z,8.57
2018-10-07T01:02:16.691Z,8.80
2018-10-07T01:04:42.994Z,8.47
2018-10-07T01:07:09.292Z,8.87
2018-10-07T01:09:35.580Z,9.37
2018-10-07T01:12:01.890Z,9.37
2018-10-07T01:14:28.227Z,9.60
2018-10-07T01:16:54.509Z,9.23
2018-10-07T01:19:20.833Z,10.30
2018-10-07T01:21:47.121Z,10.00
2018-10-07T01:24:13.469Z,10.30
2018-10-07T01:26:39.768Z,9.70
2018-10-07T01:29:06.120Z,10.40
2018-10-07T01:31:32.417Z,9.50
2018-10-07T01:33:58.706Z,9.20
2018-10-07T01:36:25.758Z,8.70
2018-10-07T01:38:52.813Z,9.17
2018-10-07T01:41:19.875Z,9.00
2018-10-07T01:43:46.213Z,9.50
2018-10-07T01:46:12.478Z,8.73
2018-10-07T01:48:38.742Z,10.47
2018-10-07T01:51:05.845Z,10.17
2018-10-07T01:53:32.115Z,9.70
2018-10-07T01:55:58.426Z,9.13
2018-10-07T01:58:24.694Z,9.90
2018-10-07T02:00:51.064Z,8.10
2018-10-07T02:03:17.326Z,8.43
2018-10-07T02:05:43.660Z,9.50
2018-10-07T02:08:09.998Z,8.47
2018-10-07T02:10:36.303Z,9.10
2018-10-07T02:13:02.603Z,8.73
2018-10-07T02:15:28.918Z,8.97
2018-10-07T02:17:55.234Z,8.57
2018-10-07T02:20:21.549Z,9.73
2018-10-07T02:22:47.815Z,8.93
2018-10-07T02:25:14.863Z,9.57
2018-10-07T02:27:41.164Z,9.43
2018-10-07T14:48:57.282Z,14.73
2018-10-07T14:51:26.643Z,15.77
2018-10-07T14:53:54.774Z,15.87
2018-10-07T14:56:24.777Z,15.20
2018-10-07T14:58:53.296Z,14.87
2018-10-07T15:01:19.744Z,14.07
2018-10-07T15:03:55.938Z,14.60
2018-10-07T15:06:24.708Z,12.27
2018-10-07T15:08:51.443Z,13.37
2018-10-07T15:11:18.482Z,11.30
2018-10-07T15:13:44.877Z,12.07
2018-10-07T15:16:11.210Z,11.03
2018-10-07T15:18:37.522Z,11.73
2018-10-07T15:21:07.615Z,11.87
2018-10-07T15:23:35.075Z,11.30
2018-10-07T15:26:01.345Z,11.50
2018-10-07T15:28:30.128Z,12.03
2018-10-07T15:30:58.434Z,11.43
2018-10-07T15:33:24.738Z,9.80
2018-10-07T15:35:53.752Z,9.80
2018-10-07T15:38:20.069Z,10.13
2018-10-07T15:40:47.486Z,9.63
2018-10-07T15:43:16.164Z,9.17
2018-10-07T15:45:44.480Z,8.63
2018-10-07T15:48:11.280Z,9.00
2018-10-07T15:50:37.639Z,9.30
2018-10-07T15:53:05.227Z,10.87
2018-10-07T15:55:33.151Z,10.80
2018-10-07T15:58:01.173Z,8.83
2018-10-07T16:00:30.566Z,9.83
2018-10-07T16:02:57.705Z,9.20
2018-10-07T16:05:25.032Z,9.07
2018-10-07T16:07:52.783Z,10.10
2018-10-07T16:10:21.567Z,9.53
2018-10-07T16:12:47.881Z,9.40
2018-10-07T16:15:15.021Z,8.27
2018-10-07T16:17:41.376Z,8.50
2018-10-07T16:20:07.677Z,6.63
2018-10-07T16:22:35.406Z,7.30
2018-10-07T16:25:03.431Z,7.20
2018-10-07T16:27:29.859Z,7.43
2018-10-07T16:29:56.103Z,5.67
2018-10-07T16:32:24.420Z,7.30
2018-10-07T16:34:53.219Z,6.20
2018-10-07T16:37:19.622Z,5.97
2018-10-07T16:39:46.681Z,6.20
2018-10-07T16:42:13.067Z,7.30
2018-10-07T16:44:39.354Z,7.87
2018-10-07T16:47:07.222Z,5.97
2018-10-07T16:49:36.011Z,6.40
2018-10-07T16:52:03.845Z,5.80
2018-10-07T16:54:33.342Z,5.90
2018-10-07T16:57:01.526Z,5.83
2018-10-07T16:59:27.868Z,5.23
2018-10-07T17:01:54.763Z,5.63
2018-10-07T17:04:21.153Z,5.17
2018-10-07T17:06:48.885Z,6.13
2018-10-07T17:09:18.780Z,5.30
2018-10-07T17:11:45.520Z,4.83
2018-10-07T17:14:11.831Z,5.70
2018-10-07T17:16:38.201Z,5.80
2018-10-07T17:19:04.823Z,6.00
2018-10-07T17:21:31.946Z,5.73
2018-10-07T17:23:58.903Z,5.60
2018-10-07T17:29:01.155Z,6.20
2018-10-07T17:31:27.648Z,5.20
2018-10-07T17:33:54.820Z,5.47
2018-10-07T17:36:21.365Z,5.97
2018-10-07T17:38:48.571Z,5.93
2018-10-07T17:41:15.014Z,5.00
2018-10-07T17:43:42.472Z,5.40
2018-10-07T17:46:08.918Z,5.43
2018-10-07T17:48:36.517Z,5.77
2018-10-07T17:51:03.357Z,4.70
2018-10-07T17:53:29.745Z,5.33
2018-10-07T17:55:55.991Z,4.73
2018-10-07T17:58:22.282Z,5.43
2018-10-07T18:00:48.602Z,5.40
2018-10-07T18:03:15.021Z,5.60
2018-10-07T18:05:41.476Z,5.03
2018-10-07T18:08:08.288Z,5.00
2018-10-07T18:10:34.579Z,5.10
2018-10-07T18:13:01.978Z,5.87
2018-10-07T18:15:28.237Z,5.30
2018-10-07T18:17:54.512Z,5.30
2018-10-07T18:20:21.880Z,5.73
2018-10-07T18:22:48.572Z,5.03
2018-10-07T18:25:16.031Z,5.20
2018-10-07T18:27:42.388Z,5.60
2018-10-07T18:30:08.780Z,5.10
2018-10-07T18:32:35.074Z,5.63
2018-10-07T18:35:05.374Z,6.00
2018-10-07T18:37:35.935Z,6.70
2018-10-07T18:40:02.374Z,5.97
2018-10-07T18:42:28.644Z,5.40
2018-10-07T18:44:55.107Z,5.70
2018-10-07T18:47:22.376Z,6.20
2018-10-07T18:49:48.708Z,7.00
2018-10-07T18:52:17.512Z,6.07
2018-10-07T18:54:46.600Z,7.40
2018-10-07T18:57:15.295Z,9.07
2018-10-07T18:59:54.315Z,8.70
2018-10-07T19:02:21.464Z,6.57
2018-10-07T19:04:47.832Z,7.53
2018-10-07T19:07:15.806Z,8.37
2018-10-07T19:09:46.122Z,11.17
2018-10-07T19:12:18.148Z,13.30
2018-10-07T19:14:46.330Z,14.33
2018-10-07T19:17:15.574Z,12.63
2018-10-07T19:19:44.510Z,10.03
2018-10-07T19:22:10.749Z,9.17
2018-10-07T19:24:37.043Z,8.47
2018-10-07T19:27:03.335Z,8.93
2018-10-07T19:29:29.642Z,7.87
2018-10-07T19:34:28.880Z,7.93
2018-10-07T19:36:57.184Z,8.00
2018-10-07T19:39:23.983Z,7.90
2018-10-07T19:41:50.285Z,7.60
2018-10-07T19:44:16.587Z,7.03
2018-10-07T19:46:42.885Z,8.17
2018-10-07T19:49:10.396Z,8.27
2018-10-07T19:51:37.583Z,7.03
2018-10-07T19:54:03.957Z,8.20
2018-10-07T19:56:31.189Z,9.00
2018-10-07T19:58:57.714Z,8.47
2018-10-07T20:01:27.095Z,9.50
2018-10-07T20:03:55.694Z,9.37
2018-10-07T20:06:22.064Z,9.10
2018-10-07T20:08:48.528Z,10.07
2018-10-07T20:11:14.871Z,10.00
2018-10-07T20:13:41.195Z,11.43
2018-10-07T20:16:07.506Z,11.97
2018-10-07T20:18:34.162Z,13.03
2018-10-07T20:21:00.461Z,10.47
2018-10-07T20:23:27.440Z,11.70
2018-10-07T20:25:53.777Z,11.87
2018-10-07T20:28:20.240Z,12.93
2018-10-07T20:30:47.809Z,12.57
2018-10-07T20:33:14.137Z,11.50
2018-10-07T20:35:41.213Z,12.20
2018-10-07T20:38:07.500Z,10.70
2018-10-07T20:40:34.469Z,10.97
2018-10-07T20:43:00.854Z,11.37
2018-10-07T20:45:27.369Z,11.80
2018-10-07T20:47:53.661Z,12.43
2018-10-07T20:50:25.329Z,12.30
2018-10-07T20:52:47.033Z,10.73
2018-10-07T20:55:13.353Z,13.03
2018-10-07T20:57:39.667Z,11.07
2018-10-07T21:00:05.974Z,11.90
2018-10-07T21:02:32.277Z,11.07
2018-10-07T21:04:58.566Z,11.50
2018-10-07T21:07:24.928Z,11.00
2018-10-07T21:09:52.119Z,12.23
2018-10-07T21:12:20.029Z,11.53
2018-10-07T21:14:46.524Z,11.13
2018-10-07T21:17:13.028Z,11.03
2018-10-07T21:19:39.388Z,12.50
2018-10-07T21:22:06.085Z,10.13
2018-10-07T21:24:32.471Z,11.57
2018-10-07T21:26:58.981Z,12.90
2018-10-07T21:29:25.334Z,11.77
2018-10-07T21:31:51.784Z,12.10
2018-10-07T21:34:18.284Z,11.17
2018-10-07T21:36:44.714Z,11.47
2018-10-07T21:39:11.060Z,11.03
2018-10-07T21:41:37.642Z,10.80
2018-10-07T21:44:03.967Z,12.27
2018-10-07T21:46:31.261Z,11.53
2018-10-07T21:48:57.703Z,11.97
2018-10-07T21:51:24.217Z,11.20
2018-10-07T21:53:50.647Z,11.87
2018-10-07T21:56:17.660Z,12.67
2018-10-07T21:58:44.132Z,13.10
2018-10-07T22:01:10.509Z,12.80
2018-10-07T22:03:37.015Z,12.77
2018-10-07T22:06:03.409Z,13.13
2018-10-07T22:08:29.826Z,12.47
2018-10-07T22:10:56.174Z,12.00
2018-10-07T22:13:22.520Z,13.30
2018-10-07T22:15:49.047Z,12.70
2018-10-07T22:18:16.856Z,11.47
2018-10-07T22:20:43.408Z,12.63
2018-10-07T22:23:11.989Z,12.87
2018-10-07T22:25:38.451Z,13.30
2018-10-07T22:28:05.048Z,11.63
2018-10-07T22:30:31.570Z,12.80
2018-10-07T22:32:57.945Z,16.60
2018-10-07T22:35:24.351Z,13.10
2018-10-07T22:37:50.872Z,13.67
2018-10-07T22:40:17.331Z,13.40
2018-10-07T22:42:43.934Z,12.33
2018-10-07T22:45:10.316Z,12.87
2018-10-07T22:47:36.703Z,12.47
2018-10-07T22:50:03.196Z,11.40
2018-10-07T22:52:29.610Z,12.80
2018-10-07T22:54:56.183Z,13.93
2018-10-07T22:57:22.508Z,13.13
2018-10-07T22:59:48.902Z,12.53
2018-10-07T23:02:15.296Z,12.37
2018-10-07T23:04:41.632Z,12.17
2018-10-07T23:07:07.984Z,12.07
2018-10-07T23:09:35.050Z,14.30
2018-10-07T23:12:02.249Z,13.50
2018-10-07T23:14:28.588Z,13.83
2018-10-07T23:16:55.006Z,12.90
2018-10-07T23:19:21.414Z,12.63
2018-10-07T23:21:47.890Z,12.03
2018-10-07T23:24:14.329Z,11.53
2018-10-07T23:26:40.698Z,12.37
2018-10-07T23:29:07.104Z,12.07
2018-10-07T23:31:33.424Z,10.33
2018-10-07T23:33:59.843Z,11.37
2018-10-07T23:36:26.196Z,11.50
2018-10-07T23:38:52.608Z,9.90
2018-10-07T23:41:19.050Z,9.97
2018-10-07T23:43:45.449Z,9.70
2018-10-07T23:46:11.830Z,9.63
2018-10-07T23:48:38.177Z,9.60
2018-10-07T23:51:05.355Z,10.33
2018-10-07T23:53:31.986Z,10.33
2018-10-07T23:55:58.553Z,9.50
2018-10-07T23:58:24.987Z,10.00
